METAR Data
IDs: Format: Raw Decoded Include TAF

Data at: 1801 UTC 16 Oct 2021

KARM 161755Z AUTO 01012G17KT 10SM CLR 22/05 A3029 RMK AO2 T02190050 10220 20147
KARM 161735Z AUTO 02012G21KT 350V060 10SM CLR 21/05 A3029 RMK AO2 T02140050
KARM 161715Z AUTO 03012G25KT 10SM CLR 21/05 A3030 RMK AO2 T02120047
KARM 161655Z AUTO 02010G24KT 10SM CLR 21/05 A3030 RMK AO2 T02100050
KARM 161635Z AUTO 02015G21KT 10SM CLR 21/05 A3030 RMK AO2 T02080049
KARM 161615Z AUTO 03015G22KT 10SM CLR 20/04 A3030 RMK AO2 T02010043
KARM 161555Z AUTO 04015G20KT 10SM CLR 20/05 A3030 RMK AO2 T01980048
KARM 161535Z AUTO 04014G21KT 10SM CLR 19/05 A3030 RMK AO2 T01920046
KARM 161515Z AUTO 03015G22KT 10SM CLR 19/05 A3030 RMK AO2 T01900053
KARM 161455Z AUTO 03011G16KT 10SM CLR 18/07 A3030 RMK AO2 T01840068
KARM 161435Z AUTO 02011G19KT 10SM CLR 18/07 A3030 RMK AO2 T01770069
KARM 161415Z AUTO 02012G22KT 10SM CLR 17/07 A3029 RMK AO2 T01720074
KARM 161355Z AUTO 02012G17KT 10SM CLR 17/08 A3029 RMK AO2 T01670076
KARM 161335Z AUTO 01010G15KT 10SM CLR 16/08 A3028 RMK AO2 T01610076
KARM 161315Z AUTO 01010G15KT 10SM CLR 16/08 A3027 RMK AO2 T01550077
KARM 161255Z AUTO 01009G14KT 10SM SCT085 15/08 A3026 RMK AO2 T01490077
KARM 161235Z AUTO 01008KT 10SM CLR 15/08 A3026 RMK AO2 T01480079
KARM 161215Z AUTO 01010KT 10SM CLR 15/08 A3025 RMK AO2 T01510079
KARM 161155Z AUTO 01013G18KT 10SM SCT080 16/08 A3024 RMK AO2 70002 T01550080 10204 20155
KARM 161135Z AUTO 01014G19KT 10SM SCT080 16/08 A3023 RMK AO2 T01570081
KARM 161115Z AUTO 01014G18KT 10SM CLR 16/08 A3022 RMK AO2 T01580084
KARM 161055Z AUTO 36014G17KT 10SM CLR 16/09 A3021 RMK AO2 T01600085
KARM 161035Z AUTO 36013G18KT 10SM CLR 16/09 A3021 RMK AO2 T01610089
KARM 161015Z AUTO 36013KT 10SM SCT065 16/09 A3019 RMK AO2 T01630092
KARM 160955Z AUTO 36012KT 10SM BKN065 17/09 A3019 RMK AO2 T01670094
KARM 160935Z AUTO 36011KT 10SM CLR 17/10 A3019 RMK AO2 T01680095
KARM 160915Z AUTO 36010G17KT 10SM SCT065 17/10 A3018 RMK AO2 T01730095
KARM 160855Z AUTO 01011G20KT 10SM BKN065 18/10 A3017 RMK AO2 T01760097
KARM 160835Z AUTO 36012G18KT 10SM SCT065 18/10 A3016 RMK AO2 T01780101
KARM 160815Z AUTO 01014G19KT 10SM CLR 18/11 A3016 RMK AO2 T01800105
KARM 160755Z AUTO 36013G18KT 10SM CLR 19/11 A3016 RMK AO2 T01850107
KARM 160735Z AUTO 01013G21KT 10SM CLR 19/11 A3016 RMK AO2 T01870111
KARM 160715Z AUTO 01014G21KT 10SM CLR 19/12 A3015 RMK AO2 T01900118
KARM 160655Z AUTO 36014G21KT 10SM CLR 19/13 A3014 RMK AO2 T01930128
KARM 160635Z AUTO 36012G20KT 10SM CLR 20/13 A3014 RMK AO2 T01990134
KARM 160615Z AUTO 01017G21KT 10SM CLR 20/14 A3013 RMK AO2 T02010136
KARM 160555Z AUTO 01014G18KT 10SM CLR 20/15 A3013 RMK AO2 T02040145 10270 20204 403170204
KARM 160535Z AUTO 36013G20KT 10SM CLR 21/15 A3013 RMK AO2 T02070149
KARM 160515Z AUTO 36013G19KT 10SM CLR 21/15 A3013 RMK AO2 T02100152
KARM 160455Z AUTO 36013G19KT 10SM SCT049 21/16 A3012 RMK AO2 T02120155
KARM 160435Z AUTO 36012KT 10SM SCT049 22/16 A3012 RMK AO2 T02150158
KARM 160415Z AUTO 36012G20KT 10SM SCT049 22/16 A3011 RMK AO2 T02170162
KARM 160355Z AUTO 35014G20KT 10SM SCT047 22/17 A3011 RMK AO2 T02190165
KARM 160335Z AUTO 35014G18KT 10SM SCT046 22/17 A3010 RMK AO2 T02200167
KARM 160315Z AUTO 35013G19KT 10SM CLR 22/17 A3008 RMK AO2 T02230171
KARM 160255Z AUTO 35015G22KT 10SM CLR 23/18 A3007 RMK AO2 T02260175
KARM 160235Z AUTO 35013G19KT 10SM CLR 23/18 A3005 RMK AO2 T02300177
KARM 160215Z AUTO 34016G20KT 10SM CLR 23/18 A3003 RMK AO2 T02310177
KARM 160155Z AUTO 35012G17KT 10SM CLR 24/18 A3002 RMK AO2 T02350178
KARM 160135Z AUTO 35013G19KT 10SM CLR 24/18 A3001 RMK AO2 T02370180
KARM 160115Z AUTO 34013G18KT 10SM CLR 24/19 A3001 RMK AO2 T02420187
KARM 160055Z AUTO 36017G21KT 10SM SCT037 SCT042 26/21 A2999 RMK AO2 T02550205
KARM 160035Z AUTO 36014G18KT 10SM BKN035 BKN048 BKN060 27/21 A2998 RMK AO2 T02650210
KARM 160015Z AUTO 30010KT 10SM SCT037 BKN048 OVC060 26/23 A2997 RMK AO2 T02590227
KARM 152355Z AUTO 15004KT 10SM BKN048 BKN060 26/23 A2996 RMK AO2 60002 T02580228 10317 20258
KARM 152335Z AUTO 11004KT 10SM CLR 26/22 A2994 RMK AO2 T02630222
KARM 152315Z AUTO 13003KT 10SM CLR 27/22 A2994 RMK AO2 T02710224
KARM 152255Z AUTO 17003KT 10SM CLR 28/22 A2993 RMK AO2 T02780224
KARM 152235Z AUTO 00000KT 10SM CLR 29/22 A2993 RMK AO2 LTG DSNT E T02900224
KARM 152215Z AUTO 21003KT 10SM CLR 29/22 A2992 RMK AO2 T02850218
KARM 152155Z AUTO 00000KT 10SM SCT075 SCT095 SCT120 28/21 A2991 RMK AO2 P0002 T02840214
KARM 152135Z AUTO 00000KT 5SM -RA SCT038 BKN050 BKN075 27/22 A2992 RMK AO2 P0002 T02670219
KARM 152115Z AUTO 34009KT 10SM BKN038 BKN046 BKN060 31/22 A2991 RMK AO2 T03090217
KARM 152055Z AUTO 30005KT 10SM SCT038 SCT045 31/22 A2992 RMK AO2 T03140216
KARM 152035Z AUTO 26003KT 10SM SCT036 SCT045 30/23 A2991 RMK AO2 T03040225
KARM 152015Z AUTO 29004KT 10SM SCT034 BKN047 30/23 A2991 RMK AO2 T03040225
KARM 151955Z AUTO 26004KT 10SM SCT032 SCT047 BKN120 31/23 A2992 RMK AO2 T03100230
KARM 151935Z AUTO 28004KT 10SM SCT032 SCT055 BKN120 30/23 A2993 RMK AO2 T03000230
KARM 151915Z AUTO 29005KT 10SM OVC032 30/23 A2993 RMK AO2 T02990228
KARM 151855Z AUTO 26005KT 10SM BKN032 BKN041 BKN055 31/23 A2994 RMK AO2 T03060225
KARM 151835Z AUTO 25005KT 10SM BKN030 SCT041 BKN055 30/23 A2994 RMK AO2 T03010226
KARM 151815Z AUTO 23003KT 10SM BKN030 30/22 A2995 RMK AO2 T03020222
KARM 151755Z AUTO 23005KT 10SM SCT028 31/23 A2996 RMK AO2 T03050229 10305 20231
KARM 151735Z AUTO 23005KT 10SM SCT023 SCT029 SCT044 30/23 A2996 RMK AO2 T02990226
KARM 151715Z AUTO 22007KT 10SM SCT023 SCT031 BKN045 30/23 A2997 RMK AO2 T02960229
KARM 151655Z AUTO 20005KT 10SM SCT026 SCT033 SCT045 29/24 A2997 RMK AO2 T02940235
KARM 151635Z AUTO 20006KT 10SM SCT020 SCT027 BKN043 28/23 A2998 RMK AO2 T02830231
KARM 151615Z AUTO 23006KT 10SM BKN020 BKN029 BKN040 28/24 A2998 RMK AO2 T02800238
KARM 151555Z AUTO 21004KT 10SM SCT018 SCT023 28/24 A2998 RMK AO2 T02760241
KARM 151535Z AUTO 22006KT 10SM BKN014 BKN021 28/24 A2997 RMK AO2 T02750244
KARM 151515Z AUTO 18006KT 10SM BKN012 OVC049 26/26 A2996 RMK AO2 T02600260
KARM 151455Z AUTO 19005KT 10SM SCT010 SCT027 BKN049 26/26 A2996 RMK AO2 T02560256
KARM 151435Z AUTO 00000KT 10SM SCT022 SCT027 BKN033 25/25 A2996 RMK AO2 T02540254
KARM 151415Z AUTO 00000KT 10SM BKN022 OVC032 25/25 A2995 RMK AO2 T02480248
KARM 151355Z AUTO 00000KT 7SM SCT022 25/25 A2994 RMK AO2 T02460246
KARM 151335Z AUTO 00000KT 4SM BR CLR 24/24 A2993 RMK AO2 T02430243
KARM 151315Z AUTO 00000KT 2 1/2SM BR CLR 24/24 A2992 RMK AO2 T02370237
KARM 151255Z AUTO 15003KT 1/2SM FG BKN014 BKN020 24/24 A2991 RMK AO2 T02350235
KARM 151235Z AUTO 00000KT 1/4SM FG OVC014 23/23 A2991 RMK AO2 T02320232
KARM 151215Z AUTO 00000KT 2SM BR BKN046 23/23 A2990 RMK AO2 T02340234
KARM 151155Z AUTO 12003KT 2 1/2SM BR OVC046 24/24 A2990 RMK AO2 70091 T02350235 10235 20216
KARM 151135Z AUTO 00000KT 1 1/2SM BR SCT014 OVC046 23/23 A2990 RMK AO2 T02330233
KARM 151115Z AUTO 00000KT 1SM BR BKN016 BKN038 OVC044 23/23 A2989 RMK AO2 T02310231
KARM 151055Z AUTO 00000KT 2 1/2SM BR SCT038 OVC044 23/23 A2989 RMK AO2 T02330233
KARM 151035Z AUTO 00000KT 2SM BR BKN037 OVC044 23/23 A2989 RMK AO2 T02310231
KARM 151015Z AUTO 00000KT 2 1/2SM BR SCT035 OVC044 23/23 A2988 RMK AO2 T02300230
KARM 150955Z AUTO 00000KT 3SM BR SCT035 OVC044 23/23 A2988 RMK AO2 T02290229
KARM 150935Z AUTO 00000KT 2 1/2SM BR OVC044 23/23 A2988 RMK AO2 T02280228
KARM 150915Z AUTO 00000KT 1 1/2SM BR SCT031 OVC042 23/23 A2988 RMK AO2 T02300230
KARM 150855Z AUTO 00000KT 1 1/2SM BR SCT001 BKN031 OVC042 23/23 A2988 RMK AO2 T02300230
KARM 150835Z AUTO 00000KT 1 1/4SM BR SCT004 BKN031 OVC042 23/23 A2988 RMK AO2 T02300230
KARM 150815Z AUTO 00000KT 1/2SM FG BKN004 OVC033 22/22 A2988 RMK AO2 T02220222
KARM 150755Z AUTO 00000KT 1/4SM FG OVC002 22/22 A2989 RMK AO2 T02160216
KARM 150735Z AUTO 00000KT 1/2SM FG OVC011 22/22 A2989 RMK AO2 T02160216
KARM 150715Z AUTO 00000KT 1/2SM FG OVC013 22/22 A2989 RMK AO2 T02190219
KARM 150655Z AUTO 00000KT 1/2SM FG OVC015 22/22 A2988 RMK AO2 T02190219
KARM 150635Z AUTO 00000KT 3/4SM BR OVC040 22/22 A2988 RMK AO2 T02200220
KARM 150615Z AUTO 00000KT 1SM BR SCT012 OVC038 22/22 A2988 RMK AO2 T02200220